createdAt,value
2023-10-21T00:01:40.403Z,7.25
2023-10-21T00:04:07.442Z,7.07
2023-10-21T00:06:34.353Z,7.28
2023-10-21T00:09:01.199Z,6.32
2023-10-21T00:11:28.255Z,5.75
2023-10-21T00:13:55.072Z,5.95
2023-10-21T00:16:21.887Z,5.78
2023-10-21T00:18:48.675Z,5.45
2023-10-21T00:21:15.744Z,5.65
2023-10-21T00:23:42.659Z,5.25
2023-10-21T00:26:09.485Z,5.07
2023-10-21T00:28:36.237Z,5.22
2023-10-21T00:31:04.587Z,4.85
2023-10-21T00:33:32.056Z,5.00
2023-10-21T00:35:59.007Z,4.82
2023-10-21T00:38:25.918Z,4.50
2023-10-21T00:40:57.692Z,4.65
2023-10-21T00:43:37.981Z,4.07
2023-10-21T00:46:21.361Z,4.70
2023-10-21T00:48:49.416Z,4.85
2023-10-21T00:51:17.171Z,4.50
2023-10-21T00:53:44.571Z,4.10
2023-10-21T00:56:11.915Z,4.55
2023-10-21T00:58:38.943Z,4.25
2023-10-21T01:01:07.587Z,4.68
2023-10-21T01:03:36.449Z,4.15
2023-10-21T01:06:03.967Z,4.45
2023-10-21T01:08:31.011Z,5.20
2023-10-21T01:10:59.451Z,5.60
2023-10-21T01:13:26.639Z,5.70
2023-10-21T01:15:53.553Z,5.38
2023-10-21T01:18:22.343Z,5.18
2023-10-21T01:20:53.579Z,5.72
2023-10-21T01:23:20.421Z,5.20
2023-10-21T01:25:47.213Z,5.03
2023-10-21T01:28:14.341Z,5.43
2023-10-21T01:30:41.148Z,5.25
2023-10-21T01:33:08.174Z,5.10
2023-10-21T01:35:35.020Z,5.53
2023-10-21T01:38:01.887Z,4.82
2023-10-21T01:40:29.171Z,5.00
2023-10-21T01:42:55.998Z,5.13
2023-10-21T01:46:15.861Z,4.70
2023-10-21T01:48:42.837Z,5.00
2023-10-21T01:51:09.799Z,5.28
2023-10-21T01:53:36.707Z,5.13
2023-10-21T01:56:04.278Z,5.18
2023-10-21T01:58:33.152Z,4.88
2023-10-21T02:01:00.224Z,4.57
2023-10-21T02:03:27.956Z,4.22
2023-10-21T02:05:54.957Z,4.10
2023-10-21T02:08:21.831Z,4.20
2023-10-21T02:10:48.624Z,3.92
2023-10-21T02:13:15.398Z,4.10
2023-10-21T02:15:42.358Z,4.07
2023-10-21T02:18:10.777Z,4.22
2023-10-21T02:20:38.675Z,4.25
2023-10-21T02:23:05.495Z,4.15
2023-10-21T02:25:33.159Z,4.63
2023-10-21T02:28:02.261Z,5.15
2023-10-21T02:30:30.238Z,5.80
2023-10-21T02:32:57.127Z,5.65
2023-10-21T02:35:24.037Z,5.40
2023-10-21T02:37:50.834Z,4.18
2023-10-21T02:40:17.868Z,4.10
2023-10-21T02:42:45.387Z,4.32
2023-10-21T02:45:12.417Z,4.10
2023-10-21T02:47:40.196Z,4.35
2023-10-21T02:50:08.269Z,4.22
2023-10-21T02:52:41.281Z,4.05
2023-10-21T02:55:08.513Z,4.35
2023-10-21T02:57:35.975Z,5.13
2023-10-21T03:00:06.075Z,4.70
2023-10-21T03:02:33.426Z,4.47
2023-10-21T03:05:00.322Z,5.38
2023-10-21T03:07:27.172Z,5.15
2023-10-21T03:09:53.955Z,5.28
2023-10-21T03:12:20.840Z,5.50
2023-10-21T03:14:47.745Z,4.78
2023-10-21T03:17:15.318Z,6.07
2023-10-21T03:19:42.105Z,6.53
2023-10-21T03:22:08.865Z,5.53
2023-10-21T03:24:35.790Z,4.82
2023-10-21T03:27:03.417Z,4.90
2023-10-21T03:29:30.241Z,4.10
2023-10-21T03:31:57.028Z,4.45
2023-10-21T03:34:23.796Z,4.45
2023-10-21T03:36:50.547Z,5.68
2023-10-21T03:39:17.351Z,6.15
2023-10-21T03:41:44.157Z,5.05
2023-10-21T03:44:10.935Z,5.05
2023-10-21T03:46:37.926Z,4.90
2023-10-21T03:49:04.848Z,4.90
2023-10-21T03:51:31.816Z,4.05
2023-10-21T03:53:59.035Z,5.40
2023-10-21T03:56:26.058Z,4.82
2023-10-21T03:58:52.838Z,5.22
2023-10-21T04:01:21.567Z,5.10
2023-10-21T04:03:48.782Z,4.90
2023-10-21T04:06:17.316Z,5.32
2023-10-21T04:08:44.221Z,4.28
2023-10-21T04:11:10.982Z,4.57
2023-10-21T04:13:37.825Z,4.80
2023-10-21T04:16:05.080Z,5.22
2023-10-21T04:18:32.168Z,4.80
2023-10-21T04:20:59.001Z,4.90
2023-10-21T04:23:25.998Z,4.90
2023-10-21T04:25:53.690Z,4.30
2023-10-21T04:28:20.542Z,4.43
2023-10-21T04:30:47.895Z,4.60
2023-10-21T04:33:14.916Z,4.65
2023-10-21T04:35:41.986Z,4.68
2023-10-21T04:38:10.971Z,4.68
2023-10-21T04:40:37.889Z,4.72
2023-10-21T04:43:04.850Z,4.68
2023-10-21T04:45:32.071Z,4.15
2023-10-21T04:47:58.977Z,4.50
2023-10-21T04:50:27.144Z,3.45
2023-10-21T04:52:55.191Z,4.43
2023-10-21T04:55:22.264Z,3.88
2023-10-21T04:57:49.083Z,4.28
2023-10-21T05:00:16.052Z,6.10
2023-10-21T05:02:43.020Z,4.30
2023-10-21T05:05:10.620Z,4.15
2023-10-21T05:07:37.463Z,4.85
2023-10-21T05:10:05.804Z,5.40
2023-10-21T05:12:32.756Z,4.68
2023-10-21T05:14:59.633Z,4.43
2023-10-21T05:17:26.560Z,3.53
2023-10-21T05:19:53.338Z,4.43
2023-10-21T05:22:20.131Z,3.80
2023-10-21T05:24:46.905Z,3.33
2023-10-21T05:27:13.686Z,2.63
2023-10-21T05:29:40.658Z,2.58
2023-10-21T05:32:08.521Z,2.28
2023-10-21T05:34:35.719Z,2.38
2023-10-21T05:37:02.855Z,2.20
2023-10-21T05:39:29.821Z,2.28
2023-10-21T05:41:56.769Z,1.92
2023-10-21T05:44:33.854Z,2.50
2023-10-21T05:47:10.463Z,2.40
2023-10-21T05:49:37.522Z,2.58
2023-10-21T05:52:04.409Z,2.30
2023-10-21T05:54:32.776Z,2.70
2023-10-21T05:56:59.624Z,2.63
2023-10-21T05:59:26.418Z,2.30
2023-10-21T06:01:53.204Z,2.65
2023-10-21T06:04:20.101Z,2.40
2023-10-21T06:06:47.013Z,2.40
2023-10-21T06:09:14.057Z,2.25
2023-10-21T06:11:41.022Z,2.53
2023-10-21T06:14:07.821Z,2.53
2023-10-21T06:16:34.704Z,2.53
2023-10-21T06:19:01.558Z,2.70
2023-10-21T06:21:28.419Z,2.60
2023-10-21T06:23:55.290Z,2.80
2023-10-21T06:26:22.691Z,2.00
2023-10-21T06:28:49.689Z,2.50
2023-10-21T06:31:16.772Z,2.83
2023-10-21T06:33:43.771Z,5.13
2023-10-21T06:36:10.593Z,2.50
2023-10-21T06:38:37.734Z,2.22
2023-10-21T06:41:14.257Z,2.10
2023-10-21T06:43:41.995Z,1.70
2023-10-21T06:46:09.114Z,2.13
2023-10-21T06:48:36.052Z,1.77
2023-10-21T06:51:02.949Z,1.85
2023-10-21T06:53:29.981Z,2.45
2023-10-21T06:55:57.291Z,2.80
2023-10-21T06:58:24.118Z,2.00
2023-10-21T07:00:52.027Z,1.80
2023-10-21T07:03:18.876Z,1.92
2023-10-21T07:05:46.325Z,1.92
2023-10-21T07:08:14.224Z,2.20
2023-10-21T07:10:41.033Z,2.00
2023-10-21T07:13:09.492Z,1.95
2023-10-21T07:15:36.421Z,1.80
2023-10-21T07:18:03.564Z,1.83
2023-10-21T07:20:30.502Z,1.90
2023-10-21T07:22:57.335Z,1.73
2023-10-21T07:25:25.165Z,1.20
2023-10-21T07:27:52.834Z,1.55
2023-10-21T07:30:20.291Z,1.60
2023-10-21T07:32:48.028Z,1.77
2023-10-21T07:35:15.641Z,1.42
2023-10-21T07:37:42.704Z,1.67
2023-10-21T07:40:11.049Z,1.40
2023-10-21T07:42:38.241Z,1.60
2023-10-21T07:45:06.194Z,1.27
2023-10-21T07:47:37.787Z,1.10
2023-10-21T07:50:08.519Z,1.10
2023-10-21T07:52:38.882Z,1.30
2023-10-21T07:55:06.744Z,1.20
2023-10-21T07:57:33.779Z,1.48
2023-10-21T08:00:01.549Z,1.17
2023-10-21T08:02:28.873Z,1.30
2023-10-21T08:04:56.512Z,1.35
2023-10-21T08:07:23.430Z,1.30
2023-10-21T08:09:50.711Z,1.10
2023-10-21T08:12:17.940Z,1.33
2023-10-21T08:14:44.997Z,1.10
2023-10-21T08:17:12.103Z,1.13
2023-10-21T08:19:39.037Z,1.00
2023-10-21T08:22:07.202Z,1.00
2023-10-21T08:24:34.539Z,1.30
2023-10-21T08:27:02.168Z,1.20
2023-10-21T08:29:29.302Z,1.20
2023-10-21T08:31:56.132Z,1.02
2023-10-21T08:34:23.638Z,1.33
2023-10-21T08:36:50.965Z,1.10
2023-10-21T08:39:18.012Z,1.15
2023-10-21T08:41:44.961Z,1.25
2023-10-21T08:44:13.166Z,0.90
2023-10-21T08:46:40.185Z,0.90
2023-10-21T08:49:09.296Z,1.02
2023-10-21T08:51:36.753Z,1.08
2023-10-21T08:54:05.137Z,1.00
2023-10-21T08:56:33.641Z,0.88
2023-10-21T08:59:02.159Z,0.98
2023-10-21T09:01:29.497Z,0.75
2023-10-21T09:03:57.696Z,0.88
2023-10-21T09:06:25.478Z,0.80
2023-10-21T09:08:52.405Z,0.80
2023-10-21T09:11:26.793Z,1.10
2023-10-21T09:13:59.916Z,0.82
2023-10-21T09:16:29.962Z,0.60
2023-10-21T09:19:02.646Z,0.60
2023-10-21T09:21:38.881Z,0.70
2023-10-21T09:24:13.331Z,0.90
2023-10-21T09:26:42.002Z,0.70
2023-10-21T09:29:11.500Z,0.90
2023-10-21T09:31:50.002Z,0.73
2023-10-21T09:34:29.206Z,0.80
2023-10-21T09:37:01.290Z,0.93
2023-10-21T09:39:30.466Z,0.60
2023-10-21T09:42:00.825Z,0.60
2023-10-21T09:44:28.241Z,0.63
2023-10-21T09:46:57.013Z,0.55
2023-10-21T09:49:29.121Z,0.55
2023-10-21T09:52:10.793Z,0.60
2023-10-21T09:54:46.566Z,0.50
2023-10-21T09:57:14.352Z,0.60
2023-10-21T09:59:42.039Z,1.00
2023-10-21T10:02:10.848Z,0.60
2023-10-21T10:04:39.527Z,0.50
2023-10-21T10:07:14.658Z,0.60
2023-10-21T10:09:48.657Z,0.40
2023-10-21T10:12:27.063Z,0.80
2023-10-21T10:14:58.355Z,0.82
2023-10-21T10:17:52.208Z,1.15
2023-10-21T10:20:22.000Z,0.55
2023-10-21T10:22:55.552Z,0.70
2023-10-21T10:25:26.393Z,0.68
2023-10-21T10:27:58.637Z,0.50
2023-10-21T10:30:31.753Z,0.80
2023-10-21T10:33:07.601Z,0.60
2023-10-21T10:35:40.848Z,0.60
2023-10-21T10:38:28.995Z,0.60
2023-10-21T10:41:13.211Z,0.70
2023-10-21T10:43:44.745Z,0.57
2023-10-21T10:46:12.514Z,0.75
2023-10-21T10:48:40.454Z,0.80
2023-10-21T10:51:13.868Z,0.70
2023-10-21T10:53:41.091Z,0.60
2023-10-21T10:56:11.078Z,0.63
2023-10-21T10:58:39.336Z,1.00
2023-10-21T11:01:09.082Z,0.57
2023-10-21T11:03:37.780Z,0.57
2023-10-21T11:06:04.916Z,0.70
2023-10-21T11:08:32.092Z,0.60
2023-10-21T11:11:06.236Z,0.40
2023-10-21T11:13:34.172Z,0.65
2023-10-21T11:16:06.131Z,0.57
2023-10-21T11:18:33.886Z,0.40
2023-10-21T11:21:00.751Z,0.50
2023-10-21T11:23:29.281Z,0.40
2023-10-21T11:25:57.808Z,0.50
2023-10-21T11:28:28.536Z,0.32
2023-10-21T11:30:57.060Z,0.40
2023-10-21T11:33:23.996Z,0.50
2023-10-21T11:35:52.547Z,0.50
2023-10-21T11:38:19.685Z,0.47
2023-10-21T11:40:47.357Z,0.30
2023-10-21T11:43:18.066Z,0.43
2023-10-21T11:45:47.644Z,0.32
2023-10-21T11:48:17.833Z,0.50
2023-10-21T11:50:46.196Z,0.57
2023-10-21T11:53:13.852Z,0.45
2023-10-21T11:55:53.532Z,0.40
2023-10-21T11:58:42.940Z,0.45
2023-10-21T12:01:32.223Z,0.60
2023-10-21T12:04:11.160Z,0.60
2023-10-21T12:06:47.109Z,0.50
2023-10-21T12:09:32.397Z,0.70
2023-10-21T12:12:11.370Z,0.60
2023-10-21T12:14:57.281Z,0.40
2023-10-21T12:17:24.206Z,0.60
2023-10-21T12:20:10.154Z,0.50
2023-10-21T12:22:52.208Z,0.57
2023-10-21T12:25:44.944Z,0.65
2023-10-21T12:28:34.800Z,0.43
2023-10-21T12:31:20.760Z,0.50
2023-10-21T12:34:06.249Z,0.45
2023-10-21T12:36:34.398Z,0.50
2023-10-21T12:39:21.878Z,0.30
2023-10-21T12:41:55.043Z,0.50
2023-10-21T12:44:27.777Z,0.50
2023-10-21T12:46:59.047Z,0.60
2023-10-21T12:49:28.438Z,0.50
2023-10-21T12:51:57.057Z,0.40
2023-10-21T12:54:24.209Z,0.43
2023-10-21T12:56:51.880Z,0.40
2023-10-21T12:59:20.557Z,0.40
2023-10-21T13:01:47.510Z,0.40
2023-10-21T13:04:14.659Z,0.43
2023-10-21T13:06:43.695Z,0.57
2023-10-21T13:09:28.826Z,0.30
2023-10-21T13:11:55.919Z,0.40
2023-10-21T13:14:22.935Z,0.50
2023-10-21T13:16:49.858Z,0.38
2023-10-21T13:19:17.266Z,0.60
2023-10-21T13:21:46.628Z,0.45
2023-10-21T13:24:13.621Z,0.45
2023-10-21T13:26:40.789Z,0.50
2023-10-21T13:29:07.584Z,0.50
2023-10-21T13:31:35.013Z,0.55
2023-10-21T13:34:03.994Z,0.47
2023-10-21T13:36:34.620Z,0.57
2023-10-21T13:39:02.943Z,0.50
2023-10-21T13:41:30.378Z,0.47
2023-10-21T13:43:59.460Z,0.52
2023-10-21T13:46:26.336Z,0.40
2023-10-21T13:48:54.506Z,0.50
2023-10-21T13:51:21.660Z,0.30
2023-10-21T13:53:48.738Z,0.60
2023-10-21T13:56:15.509Z,0.38
2023-10-21T13:58:43.072Z,0.47
2023-10-21T14:01:13.735Z,0.50
2023-10-21T14:03:41.253Z,0.43
2023-10-21T14:06:08.298Z,0.57
2023-10-21T14:08:35.102Z,0.57
2023-10-21T14:11:07.078Z,0.38
2023-10-21T14:13:35.159Z,0.40
2023-10-21T14:16:06.539Z,0.60
2023-10-21T14:18:34.280Z,0.60
2023-10-21T14:21:01.445Z,0.60
2023-10-21T14:23:29.621Z,0.50
2023-10-21T14:26:00.641Z,0.47
2023-10-21T14:28:29.412Z,0.50
2023-10-21T14:30:58.713Z,0.43
2023-10-21T14:33:33.068Z,0.60
2023-10-21T14:36:08.246Z,0.30
2023-10-21T14:38:36.047Z,0.70
2023-10-21T14:41:03.836Z,0.40
2023-10-21T14:43:32.855Z,0.43
2023-10-21T14:45:59.713Z,0.60
2023-10-21T14:48:26.630Z,0.40
2023-10-21T14:50:53.435Z,0.50
2023-10-21T14:53:20.322Z,0.70
2023-10-21T14:58:17.807Z,0.52
2023-10-21T15:00:45.083Z,0.47
2023-10-21T15:03:21.014Z,0.55
2023-10-21T15:05:48.746Z,0.50
2023-10-21T15:08:20.749Z,0.40
2023-10-21T15:10:48.889Z,0.32
2023-10-21T15:13:15.673Z,0.32
2023-10-21T15:15:44.205Z,0.65
2023-10-21T15:18:11.899Z,0.70
2023-10-21T15:20:39.246Z,0.80
2023-10-21T15:23:06.380Z,0.77
2023-10-21T15:25:34.390Z,0.70
2023-10-21T15:28:01.526Z,0.68
2023-10-21T15:30:29.229Z,0.60
2023-10-21T15:32:57.793Z,0.75
2023-10-21T15:35:26.372Z,0.80
2023-10-21T15:37:53.968Z,0.88
2023-10-21T15:40:21.941Z,0.60
2023-10-21T15:42:50.520Z,1.23
2023-10-21T15:45:18.198Z,0.80
2023-10-21T15:47:45.321Z,0.77
2023-10-21T15:50:12.194Z,0.70
2023-10-21T15:52:39.766Z,0.82
2023-10-21T15:55:07.160Z,1.30
2023-10-21T15:57:34.694Z,0.90
2023-10-21T16:00:12.901Z,0.60
2023-10-21T16:02:40.862Z,1.25
2023-10-21T16:05:08.123Z,1.10
2023-10-21T16:07:50.227Z,0.98
2023-10-21T16:10:21.704Z,1.10
2023-10-21T16:12:48.496Z,1.00
2023-10-21T16:15:15.546Z,1.00
2023-10-21T16:17:42.467Z,1.08
2023-10-21T16:20:10.030Z,1.15
2023-10-21T16:22:37.872Z,1.23
2023-10-21T16:25:05.436Z,1.17
2023-10-21T16:27:32.397Z,0.65
2023-10-21T16:29:59.956Z,0.90
2023-10-21T16:32:26.788Z,0.90
2023-10-21T16:34:53.633Z,1.00
2023-10-21T16:37:20.722Z,0.82
2023-10-21T16:39:47.653Z,0.80
2023-10-21T16:42:14.768Z,1.40
2023-10-21T16:44:42.963Z,1.30
2023-10-21T16:47:09.984Z,1.13
2023-10-21T16:49:37.076Z,1.30
2023-10-21T16:52:04.198Z,1.50
2023-10-21T16:54:31.033Z,1.20
2023-10-21T16:56:58.100Z,1.40
2023-10-21T16:59:25.103Z,4.22
2023-10-21T17:01:52.195Z,1.08
2023-10-21T17:04:19.078Z,1.25
2023-10-21T17:06:46.100Z,2.45
2023-10-21T17:09:13.157Z,3.65
2023-10-21T17:11:40.033Z,4.90
2023-10-21T17:14:07.116Z,2.30
2023-10-21T17:16:34.123Z,2.53
2023-10-21T17:19:01.069Z,11.52
2023-10-21T17:21:28.065Z,3.42
2023-10-21T17:23:54.984Z,1.60
2023-10-21T17:26:22.788Z,1.58
2023-10-21T17:28:49.941Z,1.67
2023-10-21T17:31:19.681Z,1.50
2023-10-21T17:33:50.586Z,1.63
2023-10-21T17:36:18.420Z,2.08
2023-10-21T17:38:45.246Z,3.65
2023-10-21T17:41:12.233Z,3.20
2023-10-21T17:43:39.066Z,1.98
2023-10-21T17:46:09.524Z,2.20
2023-10-21T17:48:36.392Z,2.45
2023-10-21T17:51:06.300Z,2.40
2023-10-21T17:53:33.170Z,1.30
2023-10-21T17:56:00.292Z,0.90
2023-10-21T17:58:27.271Z,0.88
2023-10-21T18:00:54.309Z,0.82
2023-10-21T18:03:21.778Z,0.93
2023-10-21T18:05:48.694Z,0.90
2023-10-21T18:08:15.562Z,0.73
2023-10-21T18:10:42.336Z,0.80
2023-10-21T18:13:09.181Z,0.70
2023-10-21T18:15:36.057Z,0.88
2023-10-21T18:18:03.810Z,0.90
2023-10-21T18:20:30.786Z,0.77
2023-10-21T18:22:58.690Z,0.90
2023-10-21T18:25:25.784Z,1.00
2023-10-21T18:27:54.416Z,1.00
2023-10-21T18:30:21.737Z,1.00
2023-10-21T18:32:48.741Z,1.10
2023-10-21T18:35:16.791Z,0.73
2023-10-21T18:37:43.660Z,0.70
2023-10-21T18:40:11.199Z,0.73
2023-10-21T18:42:38.267Z,0.80
2023-10-21T18:45:06.141Z,0.70
2023-10-21T18:47:33.862Z,0.60
2023-10-21T18:50:00.821Z,0.88
2023-10-21T18:52:27.634Z,0.60
2023-10-21T18:54:55.590Z,0.70
2023-10-21T18:57:24.760Z,0.80
2023-10-21T18:59:54.541Z,0.60
2023-10-21T19:02:21.934Z,0.75
2023-10-21T19:04:49.152Z,0.82
2023-10-21T19:07:16.141Z,0.90
2023-10-21T19:09:43.755Z,0.70
2023-10-21T19:12:10.700Z,0.70
2023-10-21T19:14:37.712Z,0.70
2023-10-21T19:17:06.036Z,0.70
2023-10-21T19:19:34.726Z,0.75
2023-10-21T19:22:02.111Z,0.68
2023-10-21T19:24:29.737Z,0.82
2023-10-21T19:26:56.907Z,0.70
2023-10-21T19:29:24.611Z,0.80
2023-10-21T19:31:53.481Z,0.93
2023-10-21T19:34:20.838Z,0.85
2023-10-21T19:36:47.746Z,0.65
2023-10-21T19:39:14.602Z,0.80
2023-10-21T19:41:43.217Z,0.85
2023-10-21T19:44:25.247Z,0.80
2023-10-21T19:46:55.822Z,0.77
2023-10-21T19:49:24.557Z,0.73
2023-10-21T19:51:52.044Z,1.00
2023-10-21T19:54:19.199Z,1.00
2023-10-21T19:56:45.995Z,0.80
2023-10-21T19:59:12.814Z,0.98
2023-10-21T20:01:39.957Z,1.00
2023-10-21T20:04:11.437Z,0.80
2023-10-21T20:06:38.597Z,1.02
2023-10-21T20:09:05.730Z,0.80
2023-10-21T20:11:32.568Z,0.93
2023-10-21T20:13:59.365Z,0.80
2023-10-21T20:16:26.443Z,1.38
2023-10-21T20:18:54.174Z,1.00
2023-10-21T20:21:21.750Z,1.10
2023-10-21T20:23:48.595Z,0.90
2023-10-21T20:26:16.391Z,0.90
2023-10-21T20:28:44.671Z,0.63
2023-10-21T20:31:12.056Z,0.80
2023-10-21T20:33:39.344Z,0.82
2023-10-21T20:36:08.162Z,0.77
2023-10-21T20:38:35.058Z,0.77
2023-10-21T20:41:13.789Z,0.90
2023-10-21T20:43:44.779Z,0.80
2023-10-21T20:46:11.762Z,1.92
2023-10-21T20:48:40.090Z,1.20
2023-10-21T20:51:13.761Z,1.08
2023-10-21T20:53:40.820Z,0.70
2023-10-21T20:56:09.167Z,0.80
2023-10-21T20:58:36.158Z,1.00
2023-10-21T21:01:02.950Z,0.75
2023-10-21T21:03:29.898Z,1.35
2023-10-21T21:05:57.082Z,1.00
2023-10-21T21:08:23.884Z,1.35
2023-10-21T21:10:50.911Z,1.10
2023-10-21T21:13:18.432Z,1.40
2023-10-21T21:15:45.282Z,1.48
2023-10-21T21:18:12.382Z,1.35
2023-10-21T21:20:39.249Z,1.40
2023-10-21T21:23:06.141Z,1.55
2023-10-21T21:25:32.952Z,1.95
2023-10-21T21:27:59.868Z,2.33
2023-10-21T21:30:26.844Z,2.67
2023-10-21T21:32:56.807Z,2.70
2023-10-21T21:35:23.712Z,1.67
2023-10-21T21:37:51.712Z,1.92
2023-10-21T21:40:18.768Z,1.20
2023-10-21T21:42:45.615Z,1.38
2023-10-21T21:45:12.668Z,1.40
2023-10-21T21:47:39.483Z,1.60
2023-10-21T21:50:07.473Z,2.17
2023-10-21T21:52:34.687Z,2.67
2023-10-21T21:55:01.730Z,1.80
2023-10-21T21:57:28.974Z,1.80
2023-10-21T21:59:55.747Z,1.80
2023-10-21T22:02:22.531Z,1.65
2023-10-21T22:04:50.042Z,1.60
2023-10-21T22:07:20.702Z,1.70
2023-10-21T22:09:47.802Z,2.03
2023-10-21T22:12:17.624Z,1.75
2023-10-21T22:14:44.461Z,1.70
2023-10-21T22:17:11.557Z,1.58
2023-10-21T22:19:39.110Z,1.55
2023-10-21T22:22:07.024Z,1.73
2023-10-21T22:24:37.648Z,1.65
2023-10-21T22:27:10.553Z,1.90
2023-10-21T22:29:42.495Z,2.20
2023-10-21T22:32:09.794Z,2.28
2023-10-21T22:34:37.626Z,2.20
2023-10-21T22:37:05.117Z,2.03
2023-10-21T22:39:33.360Z,1.90
2023-10-21T22:42:00.819Z,1.60
2023-10-21T22:44:27.896Z,1.50
2023-10-21T22:46:54.880Z,2.13
2023-10-21T22:49:21.736Z,2.13
2023-10-21T22:51:48.520Z,2.03
2023-10-21T22:54:15.285Z,1.95
2023-10-21T22:56:42.101Z,1.63
2023-10-21T22:59:08.914Z,1.40
2023-10-21T23:01:36.105Z,1.30
2023-10-21T23:04:03.010Z,1.50
2023-10-21T23:06:30.037Z,1.65
2023-10-21T23:08:57.554Z,1.45
2023-10-21T23:11:25.219Z,1.80
2023-10-21T23:13:52.664Z,1.90
2023-10-21T23:16:20.720Z,2.40
2023-10-21T23:18:47.837Z,2.30
2023-10-21T23:21:15.496Z,3.10
2023-10-21T23:23:42.477Z,3.60
2023-10-21T23:26:11.860Z,2.60
2023-10-21T23:28:38.826Z,2.10
2023-10-21T23:31:05.799Z,1.90
2023-10-21T23:33:32.951Z,1.77
2023-10-21T23:36:07.610Z,1.48
2023-10-21T23:38:35.002Z,1.45
2023-10-21T23:41:02.910Z,1.38
2023-10-21T23:43:29.794Z,1.20
2023-10-21T23:46:03.072Z,1.33
2023-10-21T23:48:30.014Z,1.10
2023-10-21T23:50:56.963Z,1.50
2023-10-21T23:53:24.388Z,1.42
2023-10-21T23:55:51.177Z,1.83
2023-10-21T23:58:20.621Z,1.75
